sensor_id;sensor_type;location;lat;lon;timestamp;P1;durP1;ratioP1;P2;durP2;ratioP2
71869;SDS011;59739;47.696;11.746;2023-05-09T00:00:54;6.57;;;5.32;;
71869;SDS011;59739;47.696;11.746;2023-05-09T00:03:20;7.75;;;5.05;;
71869;SDS011;59739;47.696;11.746;2023-05-09T00:05:46;6.55;;;5.20;;
71869;SDS011;59739;47.696;11.746;2023-05-09T00:08:12;6.38;;;5.32;;
71869;SDS011;59739;47.696;11.746;2023-05-09T00:10:39;7.45;;;5.22;;
71869;SDS011;59739;47.696;11.746;2023-05-09T00:13:05;7.25;;;5.15;;
71869;SDS011;59739;47.696;11.746;2023-05-09T00:15:31;18.02;;;6.55;;
71869;SDS011;59739;47.696;11.746;2023-05-09T00:17:56;8.40;;;5.53;;
71869;SDS011;59739;47.696;11.746;2023-05-09T00:20:23;7.32;;;5.75;;
71869;SDS011;59739;47.696;11.746;2023-05-09T00:22:49;9.07;;;5.55;;
71869;SDS011;59739;47.696;11.746;2023-05-09T00:25:15;9.10;;;5.95;;
71869;SDS011;59739;47.696;11.746;2023-05-09T00:27:41;8.52;;;6.13;;
71869;SDS011;59739;47.696;11.746;2023-05-09T00:30:07;8.10;;;5.47;;
71869;SDS011;59739;47.696;11.746;2023-05-09T00:32:34;8.25;;;6.53;;
71869;SDS011;59739;47.696;11.746;2023-05-09T00:35:00;7.15;;;6.07;;
71869;SDS011;59739;47.696;11.746;2023-05-09T00:37:27;8.88;;;5.78;;
71869;SDS011;59739;47.696;11.746;2023-05-09T00:39:55;8.85;;;6.28;;
71869;SDS011;59739;47.696;11.746;2023-05-09T00:42:21;8.80;;;6.30;;
71869;SDS011;59739;47.696;11.746;2023-05-09T00:44:47;7.65;;;6.20;;
71869;SDS011;59739;47.696;11.746;2023-05-09T00:47:13;8.20;;;6.10;;
71869;SDS011;59739;47.696;11.746;2023-05-09T00:49:39;12.48;;;7.18;;
71869;SDS011;59739;47.696;11.746;2023-05-09T00:52:04;8.55;;;6.05;;
71869;SDS011;59739;47.696;11.746;2023-05-09T00:54:30;7.35;;;5.68;;
71869;SDS011;59739;47.696;11.746;2023-05-09T00:56:56;8.07;;;5.72;;
71869;SDS011;59739;47.696;11.746;2023-05-09T00:59:23;8.77;;;5.30;;
71869;SDS011;59739;47.696;11.746;2023-05-09T01:01:49;7.35;;;5.50;;
71869;SDS011;59739;47.696;11.746;2023-05-09T01:04:15;6.60;;;4.85;;
71869;SDS011;59739;47.696;11.746;2023-05-09T01:06:56;8.25;;;5.60;;
71869;SDS011;59739;47.696;11.746;2023-05-09T01:12:51;7.80;;;5.28;;
71869;SDS011;59739;47.696;11.746;2023-05-09T01:15:45;6.38;;;5.00;;
71869;SDS011;59739;47.696;11.746;2023-05-09T01:19:26;8.13;;;5.72;;
71869;SDS011;59739;47.696;11.746;2023-05-09T01:21:46;7.38;;;5.40;;
71869;SDS011;59739;47.696;11.746;2023-05-09T01:27:12;11.45;;;5.95;;
71869;SDS011;59739;47.696;11.746;2023-05-09T01:29:47;7.72;;;5.85;;
71869;SDS011;59739;47.696;11.746;2023-05-09T01:32:24;8.35;;;5.65;;
71869;SDS011;59739;47.696;11.746;2023-05-09T01:34:54;9.52;;;6.53;;
71869;SDS011;59739;47.696;11.746;2023-05-09T01:37:27;9.95;;;6.63;;
71869;SDS011;59739;47.696;11.746;2023-05-09T01:39:57;11.23;;;6.80;;
71869;SDS011;59739;47.696;11.746;2023-05-09T01:42:35;10.75;;;6.82;;
71869;SDS011;59739;47.696;11.746;2023-05-09T01:45:07;8.85;;;6.63;;
71869;SDS011;59739;47.696;11.746;2023-05-09T01:47:35;12.07;;;7.45;;
71869;SDS011;59739;47.696;11.746;2023-05-09T01:50:03;9.45;;;6.38;;
71869;SDS011;59739;47.696;11.746;2023-05-09T01:52:31;11.55;;;6.22;;
71869;SDS011;59739;47.696;11.746;2023-05-09T01:54:58;14.93;;;6.53;;
71869;SDS011;59739;47.696;11.746;2023-05-09T01:57:27;10.80;;;6.68;;
71869;SDS011;59739;47.696;11.746;2023-05-09T01:59:54;10.15;;;6.82;;
71869;SDS011;59739;47.696;11.746;2023-05-09T02:02:24;14.02;;;7.50;;
71869;SDS011;59739;47.696;11.746;2023-05-09T02:04:51;27.63;;;8.02;;
71869;SDS011;59739;47.696;11.746;2023-05-09T02:07:21;9.70;;;6.47;;
71869;SDS011;59739;47.696;11.746;2023-05-09T02:09:54;33.05;;;7.80;;
71869;SDS011;59739;47.696;11.746;2023-05-09T02:12:22;16.05;;;6.18;;
71869;SDS011;59739;47.696;11.746;2023-05-09T02:14:49;12.85;;;6.35;;
71869;SDS011;59739;47.696;11.746;2023-05-09T02:17:15;9.32;;;6.10;;
71869;SDS011;59739;47.696;11.746;2023-05-09T02:19:42;18.77;;;6.80;;
71869;SDS011;59739;47.696;11.746;2023-05-09T02:22:08;9.32;;;5.45;;
71869;SDS011;59739;47.696;11.746;2023-05-09T02:24:36;7.32;;;5.53;;
71869;SDS011;59739;47.696;11.746;2023-05-09T02:27:02;8.80;;;6.03;;
71869;SDS011;59739;47.696;11.746;2023-05-09T02:29:52;8.30;;;5.22;;
71869;SDS011;59739;47.696;11.746;2023-05-09T02:32:22;7.30;;;5.38;;
71869;SDS011;59739;47.696;11.746;2023-05-09T02:34:53;7.47;;;5.28;;
71869;SDS011;59739;47.696;11.746;2023-05-09T02:37:19;7.57;;;4.72;;
71869;SDS011;59739;47.696;11.746;2023-05-09T02:39:46;8.13;;;4.97;;
71869;SDS011;59739;47.696;11.746;2023-05-09T02:42:15;5.28;;;4.20;;
71869;SDS011;59739;47.696;11.746;2023-05-09T02:44:52;6.07;;;4.43;;
71869;SDS011;59739;47.696;11.746;2023-05-09T02:47:20;6.20;;;4.40;;
71869;SDS011;59739;47.696;11.746;2023-05-09T02:49:49;4.88;;;3.90;;
71869;SDS011;59739;47.696;11.746;2023-05-09T02:52:15;8.25;;;4.72;;
71869;SDS011;59739;47.696;11.746;2023-05-09T02:54:41;4.63;;;4.00;;
71869;SDS011;59739;47.696;11.746;2023-05-09T02:57:07;4.03;;;3.42;;
71869;SDS011;59739;47.696;11.746;2023-05-09T02:59:33;4.65;;;3.30;;
71869;SDS011;59739;47.696;11.746;2023-05-09T03:02:00;3.58;;;2.90;;
71869;SDS011;59739;47.696;11.746;2023-05-09T03:04:27;3.28;;;2.90;;
71869;SDS011;59739;47.696;11.746;2023-05-09T03:06:53;3.40;;;2.97;;
71869;SDS011;59739;47.696;11.746;2023-05-09T03:09:20;6.28;;;3.45;;
71869;SDS011;59739;47.696;11.746;2023-05-09T03:11:46;3.67;;;3.20;;
71869;SDS011;59739;47.696;11.746;2023-05-09T03:14:12;4.45;;;2.97;;
71869;SDS011;59739;47.696;11.746;2023-05-09T03:16:39;5.10;;;3.42;;
71869;SDS011;59739;47.696;11.746;2023-05-09T03:19:12;3.22;;;2.90;;
71869;SDS011;59739;47.696;11.746;2023-05-09T03:21:38;3.55;;;2.72;;
71869;SDS011;59739;47.696;11.746;2023-05-09T03:24:05;3.53;;;2.78;;
71869;SDS011;59739;47.696;11.746;2023-05-09T03:26:32;3.58;;;2.55;;
71869;SDS011;59739;47.696;11.746;2023-05-09T03:29:02;4.03;;;2.50;;
71869;SDS011;59739;47.696;11.746;2023-05-09T03:31:28;3.20;;;2.45;;
71869;SDS011;59739;47.696;11.746;2023-05-09T03:33:54;2.20;;;2.00;;
71869;SDS011;59739;47.696;11.746;2023-05-09T03:36:20;4.75;;;2.60;;
71869;SDS011;59739;47.696;11.746;2023-05-09T03:38:47;3.10;;;2.40;;
71869;SDS011;59739;47.696;11.746;2023-05-09T03:41:15;3.45;;;2.83;;
71869;SDS011;59739;47.696;11.746;2023-05-09T03:43:44;2.60;;;2.35;;
71869;SDS011;59739;47.696;11.746;2023-05-09T03:46:10;6.53;;;2.30;;
71869;SDS011;59739;47.696;11.746;2023-05-09T03:48:37;3.85;;;2.80;;
71869;SDS011;59739;47.696;11.746;2023-05-09T03:51:03;2.30;;;2.10;;
71869;SDS011;59739;47.696;11.746;2023-05-09T03:53:32;3.20;;;2.58;;
71869;SDS011;59739;47.696;11.746;2023-05-09T03:55:59;4.15;;;2.60;;
71869;SDS011;59739;47.696;11.746;2023-05-09T03:58:25;3.50;;;2.72;;
71869;SDS011;59739;47.696;11.746;2023-05-09T04:00:52;4.28;;;2.55;;
71869;SDS011;59739;47.696;11.746;2023-05-09T04:03:21;4.60;;;2.75;;
71869;SDS011;59739;47.696;11.746;2023-05-09T04:05:49;4.25;;;2.70;;
71869;SDS011;59739;47.696;11.746;2023-05-09T04:08:28;5.38;;;3.10;;
71869;SDS011;59739;47.696;11.746;2023-05-09T04:10:54;3.92;;;2.42;;
71869;SDS011;59739;47.696;11.746;2023-05-09T04:13:20;8.35;;;2.95;;
71869;SDS011;59739;47.696;11.746;2023-05-09T04:15:47;3.60;;;2.65;;
71869;SDS011;59739;47.696;11.746;2023-05-09T04:18:13;4.72;;;2.80;;
71869;SDS011;59739;47.696;11.746;2023-05-09T04:20:40;5.50;;;2.70;;
71869;SDS011;59739;47.696;11.746;2023-05-09T04:23:07;3.83;;;2.50;;
71869;SDS011;59739;47.696;11.746;2023-05-09T04:25:33;3.00;;;2.30;;
71869;SDS011;59739;47.696;11.746;2023-05-09T04:28:01;4.97;;;2.78;;
71869;SDS011;59739;47.696;11.746;2023-05-09T04:30:27;6.88;;;2.50;;
71869;SDS011;59739;47.696;11.746;2023-05-09T04:32:54;2.38;;;2.17;;
71869;SDS011;59739;47.696;11.746;2023-05-09T04:35:20;3.35;;;2.72;;
71869;SDS011;59739;47.696;11.746;2023-05-09T04:37:48;5.57;;;2.90;;
71869;SDS011;59739;47.696;11.746;2023-05-09T04:40:16;6.03;;;3.08;;
71869;SDS011;59739;47.696;11.746;2023-05-09T04:42:49;4.18;;;3.13;;
71869;SDS011;59739;47.696;11.746;2023-05-09T04:45:17;4.60;;;3.38;;
71869;SDS011;59739;47.696;11.746;2023-05-09T04:47:44;4.43;;;2.80;;
71869;SDS011;59739;47.696;11.746;2023-05-09T04:50:10;4.85;;;3.10;;
71869;SDS011;59739;47.696;11.746;2023-05-09T04:52:36;3.20;;;2.90;;
71869;SDS011;59739;47.696;11.746;2023-05-09T04:55:03;4.10;;;3.35;;
71869;SDS011;59739;47.696;11.746;2023-05-09T04:57:34;5.85;;;3.80;;
71869;SDS011;59739;47.696;11.746;2023-05-09T05:00:03;5.97;;;3.92;;
71869;SDS011;59739;47.696;11.746;2023-05-09T05:02:31;5.05;;;3.40;;
71869;SDS011;59739;47.696;11.746;2023-05-09T05:04:58;4.45;;;3.50;;
71869;SDS011;59739;47.696;11.746;2023-05-09T05:07:24;4.65;;;3.50;;
71869;SDS011;59739;47.696;11.746;2023-05-09T05:09:53;4.57;;;3.83;;
71869;SDS011;59739;47.696;11.746;2023-05-09T05:12:21;4.22;;;3.67;;
71869;SDS011;59739;47.696;11.746;2023-05-09T05:14:47;5.57;;;3.97;;
71869;SDS011;59739;47.696;11.746;2023-05-09T05:17:17;3.33;;;2.90;;
71869;SDS011;59739;47.696;11.746;2023-05-09T05:19:44;3.65;;;3.22;;
71869;SDS011;59739;47.696;11.746;2023-05-09T05:22:10;6.45;;;2.92;;
71869;SDS011;59739;47.696;11.746;2023-05-09T05:24:39;3.78;;;3.20;;
71869;SDS011;59739;47.696;11.746;2023-05-09T05:27:05;3.45;;;3.15;;
71869;SDS011;59739;47.696;11.746;2023-05-09T05:29:32;7.63;;;3.40;;
71869;SDS011;59739;47.696;11.746;2023-05-09T05:32:01;7.90;;;3.08;;
71869;SDS011;59739;47.696;11.746;2023-05-09T05:34:27;5.75;;;2.90;;
71869;SDS011;59739;47.696;11.746;2023-05-09T05:36:53;5.90;;;2.75;;
71869;SDS011;59739;47.696;11.746;2023-05-09T05:39:19;5.40;;;3.05;;
71869;SDS011;59739;47.696;11.746;2023-05-09T05:41:45;2.97;;;2.72;;
71869;SDS011;59739;47.696;11.746;2023-05-09T05:44:11;4.65;;;2.75;;
71869;SDS011;59739;47.696;11.746;2023-05-09T05:46:37;5.28;;;2.95;;
71869;SDS011;59739;47.696;11.746;2023-05-09T05:49:04;3.45;;;2.45;;
71869;SDS011;59739;47.696;11.746;2023-05-09T05:51:31;2.58;;;2.38;;
71869;SDS011;59739;47.696;11.746;2023-05-09T05:53:58;3.53;;;2.50;;
71869;SDS011;59739;47.696;11.746;2023-05-09T05:56:27;4.15;;;2.40;;
71869;SDS011;59739;47.696;11.746;2023-05-09T05:58:54;2.80;;;2.30;;
71869;SDS011;59739;47.696;11.746;2023-05-09T06:01:21;4.05;;;2.20;;
71869;SDS011;59739;47.696;11.746;2023-05-09T06:03:47;2.80;;;1.98;;
71869;SDS011;59739;47.696;11.746;2023-05-09T06:06:19;2.75;;;2.10;;
71869;SDS011;59739;47.696;11.746;2023-05-09T06:08:46;2.95;;;2.17;;
71869;SDS011;59739;47.696;11.746;2023-05-09T06:11:16;2.33;;;2.10;;
71869;SDS011;59739;47.696;11.746;2023-05-09T06:13:42;2.80;;;2.10;;
71869;SDS011;59739;47.696;11.746;2023-05-09T06:16:09;2.85;;;2.00;;
71869;SDS011;59739;47.696;11.746;2023-05-09T06:18:36;2.67;;;2.28;;
71869;SDS011;59739;47.696;11.746;2023-05-09T06:21:04;2.40;;;2.20;;
71869;SDS011;59739;47.696;11.746;2023-05-09T06:23:31;4.10;;;2.38;;
71869;SDS011;59739;47.696;11.746;2023-05-09T06:25:57;2.10;;;1.88;;
71869;SDS011;59739;47.696;11.746;2023-05-09T06:28:24;3.42;;;2.42;;
71869;SDS011;59739;47.696;11.746;2023-05-09T06:30:51;2.20;;;2.00;;
71869;SDS011;59739;47.696;11.746;2023-05-09T06:33:16;3.97;;;2.30;;
71869;SDS011;59739;47.696;11.746;2023-05-09T06:35:43;3.40;;;1.70;;
71869;SDS011;59739;47.696;11.746;2023-05-09T06:38:09;4.35;;;2.42;;
71869;SDS011;59739;47.696;11.746;2023-05-09T06:40:35;2.88;;;1.98;;
71869;SDS011;59739;47.696;11.746;2023-05-09T06:43:01;2.08;;;1.88;;
71869;SDS011;59739;47.696;11.746;2023-05-09T06:45:27;3.47;;;2.17;;
71869;SDS011;59739;47.696;11.746;2023-05-09T06:47:54;1.85;;;1.50;;
71869;SDS011;59739;47.696;11.746;2023-05-09T06:50:20;3.05;;;1.88;;
71869;SDS011;59739;47.696;11.746;2023-05-09T06:52:47;4.45;;;2.13;;
71869;SDS011;59739;47.696;11.746;2023-05-09T06:55:13;2.47;;;1.92;;
71869;SDS011;59739;47.696;11.746;2023-05-09T06:57:39;3.53;;;1.95;;
71869;SDS011;59739;47.696;11.746;2023-05-09T07:00:05;2.28;;;1.73;;
71869;SDS011;59739;47.696;11.746;2023-05-09T07:02:32;2.70;;;1.75;;
71869;SDS011;59739;47.696;11.746;2023-05-09T07:04:58;1.75;;;1.65;;
71869;SDS011;59739;47.696;11.746;2023-05-09T07:07:25;3.15;;;1.70;;
71869;SDS011;59739;47.696;11.746;2023-05-09T07:09:51;3.63;;;1.70;;
71869;SDS011;59739;47.696;11.746;2023-05-09T07:12:17;3.08;;;1.70;;
71869;SDS011;59739;47.696;11.746;2023-05-09T07:14:43;3.72;;;1.45;;
71869;SDS011;59739;47.696;11.746;2023-05-09T07:17:09;3.55;;;1.50;;
71869;SDS011;59739;47.696;11.746;2023-05-09T07:19:35;2.88;;;1.85;;
71869;SDS011;59739;47.696;11.746;2023-05-09T07:22:01;3.58;;;1.85;;
71869;SDS011;59739;47.696;11.746;2023-05-09T07:24:27;1.95;;;1.67;;
71869;SDS011;59739;47.696;11.746;2023-05-09T07:26:53;1.77;;;1.67;;
71869;SDS011;59739;47.696;11.746;2023-05-09T07:29:19;2.47;;;1.95;;
71869;SDS011;59739;47.696;11.746;2023-05-09T07:31:45;2.42;;;1.55;;
71869;SDS011;59739;47.696;11.746;2023-05-09T07:34:11;3.95;;;1.58;;
71869;SDS011;59739;47.696;11.746;2023-05-09T07:36:37;1.58;;;1.48;;
71869;SDS011;59739;47.696;11.746;2023-05-09T07:39:03;2.10;;;1.90;;
71869;SDS011;59739;47.696;11.746;2023-05-09T07:41:30;2.10;;;1.60;;
71869;SDS011;59739;47.696;11.746;2023-05-09T07:43:56;2.33;;;1.70;;
71869;SDS011;59739;47.696;11.746;2023-05-09T07:46:22;2.15;;;1.50;;
71869;SDS011;59739;47.696;11.746;2023-05-09T07:48:48;1.40;;;1.30;;
71869;SDS011;59739;47.696;11.746;2023-05-09T07:51:14;3.25;;;1.60;;
71869;SDS011;59739;47.696;11.746;2023-05-09T07:53:40;2.00;;;1.63;;
71869;SDS011;59739;47.696;11.746;2023-05-09T07:56:06;2.35;;;1.50;;
71869;SDS011;59739;47.696;11.746;2023-05-09T07:58:32;2.60;;;1.77;;
71869;SDS011;59739;47.696;11.746;2023-05-09T08:00:58;3.20;;;1.95;;
71869;SDS011;59739;47.696;11.746;2023-05-09T08:03:25;1.65;;;1.40;;
71869;SDS011;59739;47.696;11.746;2023-05-09T08:05:54;1.55;;;1.20;;
71869;SDS011;59739;47.696;11.746;2023-05-09T08:08:20;2.55;;;1.45;;
71869;SDS011;59739;47.696;11.746;2023-05-09T08:10:47;2.10;;;1.70;;
71869;SDS011;59739;47.696;11.746;2023-05-09T08:13:13;2.33;;;1.92;;
71869;SDS011;59739;47.696;11.746;2023-05-09T08:15:39;2.13;;;1.90;;
71869;SDS011;59739;47.696;11.746;2023-05-09T08:18:05;2.00;;;1.80;;
71869;SDS011;59739;47.696;11.746;2023-05-09T08:20:34;4.82;;;2.88;;
71869;SDS011;59739;47.696;11.746;2023-05-09T08:23:00;40.70;;;10.63;;
71869;SDS011;59739;47.696;11.746;2023-05-09T08:25:26;13.30;;;5.45;;
71869;SDS011;59739;47.696;11.746;2023-05-09T08:27:56;7.07;;;3.75;;
71869;SDS011;59739;47.696;11.746;2023-05-09T08:30:23;5.03;;;3.42;;
71869;SDS011;59739;47.696;11.746;2023-05-09T08:32:49;3.42;;;2.20;;
71869;SDS011;59739;47.696;11.746;2023-05-09T08:35:15;3.88;;;2.70;;
71869;SDS011;59739;47.696;11.746;2023-05-09T08:37:41;2.53;;;2.30;;
71869;SDS011;59739;47.696;11.746;2023-05-09T08:40:12;10.85;;;4.45;;
71869;SDS011;59739;47.696;11.746;2023-05-09T08:42:38;3.35;;;2.50;;
71869;SDS011;59739;47.696;11.746;2023-05-09T08:45:10;9.35;;;3.72;;
71869;SDS011;59739;47.696;11.746;2023-05-09T08:47:40;10.07;;;3.33;;
71869;SDS011;59739;47.696;11.746;2023-05-09T08:50:07;5.22;;;3.10;;
71869;SDS011;59739;47.696;11.746;2023-05-09T08:52:39;2.38;;;2.17;;
71869;SDS011;59739;47.696;11.746;2023-05-09T08:55:05;2.83;;;2.20;;
71869;SDS011;59739;47.696;11.746;2023-05-09T08:57:32;4.07;;;2.63;;
71869;SDS011;59739;47.696;11.746;2023-05-09T09:00:01;1.73;;;1.63;;
71869;SDS011;59739;47.696;11.746;2023-05-09T09:02:31;1.83;;;1.73;;
71869;SDS011;59739;47.696;11.746;2023-05-09T09:04:59;2.05;;;1.88;;
71869;SDS011;59739;47.696;11.746;2023-05-09T09:07:26;3.30;;;1.73;;
71869;SDS011;59739;47.696;11.746;2023-05-09T09:09:54;2.78;;;1.98;;
71869;SDS011;59739;47.696;11.746;2023-05-09T09:12:22;3.30;;;1.92;;
71869;SDS011;59739;47.696;11.746;2023-05-09T09:14:52;2.67;;;2.47;;
71869;SDS011;59739;47.696;11.746;2023-05-09T09:17:24;13.52;;;4.80;;
71869;SDS011;59739;47.696;11.746;2023-05-09T09:19:54;20.38;;;6.53;;
71869;SDS011;59739;47.696;11.746;2023-05-09T09:22:24;2.50;;;2.05;;
71869;SDS011;59739;47.696;11.746;2023-05-09T09:25:01;5.00;;;2.67;;
71869;SDS011;59739;47.696;11.746;2023-05-09T09:27:29;2.92;;;2.60;;
71869;SDS011;59739;47.696;11.746;2023-05-09T09:30:05;3.65;;;3.05;;
71869;SDS011;59739;47.696;11.746;2023-05-09T09:32:36;4.47;;;3.00;;
71869;SDS011;59739;47.696;11.746;2023-05-09T09:35:07;4.75;;;3.22;;
71869;SDS011;59739;47.696;11.746;2023-05-09T09:37:36;4.38;;;3.97;;
71869;SDS011;59739;47.696;11.746;2023-05-09T09:40:07;4.00;;;3.50;;
71869;SDS011;59739;47.696;11.746;2023-05-09T09:42:45;5.43;;;3.70;;
71869;SDS011;59739;47.696;11.746;2023-05-09T09:45:16;6.45;;;3.92;;
71869;SDS011;59739;47.696;11.746;2023-05-09T09:47:44;4.07;;;3.70;;
71869;SDS011;59739;47.696;11.746;2023-05-09T09:50:16;4.28;;;3.88;;
71869;SDS011;59739;47.696;11.746;2023-05-09T09:55:20;4.45;;;3.83;;
71869;SDS011;59739;47.696;11.746;2023-05-09T09:57:48;4.05;;;3.35;;
71869;SDS011;59739;47.696;11.746;2023-05-09T10:00:16;4.78;;;4.10;;
71869;SDS011;59739;47.696;11.746;2023-05-09T10:02:49;4.95;;;3.65;;
71869;SDS011;59739;47.696;11.746;2023-05-09T10:05:21;4.60;;;4.20;;
71869;SDS011;59739;47.696;11.746;2023-05-09T10:07:53;7.90;;;4.85;;
71869;SDS011;59739;47.696;11.746;2023-05-09T10:10:32;4.95;;;4.30;;
71869;SDS011;59739;47.696;11.746;2023-05-09T10:13:04;8.65;;;4.28;;
71869;SDS011;59739;47.696;11.746;2023-05-09T10:15:34;4.88;;;4.22;;
71869;SDS011;59739;47.696;11.746;2023-05-09T10:18:01;5.15;;;4.25;;
71869;SDS011;59739;47.696;11.746;2023-05-09T10:20:29;5.13;;;4.35;;
71869;SDS011;59739;47.696;11.746;2023-05-09T10:22:56;4.55;;;4.05;;
71869;SDS011;59739;47.696;11.746;2023-05-09T10:28:09;4.70;;;4.18;;
71869;SDS011;59739;47.696;11.746;2023-05-09T10:30:43;4.32;;;3.92;;
71869;SDS011;59739;47.696;11.746;2023-05-09T10:33:33;5.55;;;4.20;;
71869;SDS011;59739;47.696;11.746;2023-05-09T10:36:12;4.60;;;4.20;;
71869;SDS011;59739;47.696;11.746;2023-05-09T10:38:50;5.40;;;4.07;;
71869;SDS011;59739;47.696;11.746;2023-05-09T10:41:19;4.13;;;3.72;;
71869;SDS011;59739;47.696;11.746;2023-05-09T10:43:46;4.80;;;3.90;;
71869;SDS011;59739;47.696;11.746;2023-05-09T10:46:13;5.03;;;3.97;;
71869;SDS011;59739;47.696;11.746;2023-05-09T10:48:40;4.45;;;3.80;;
71869;SDS011;59739;47.696;11.746;2023-05-09T10:51:07;4.15;;;3.60;;
71869;SDS011;59739;47.696;11.746;2023-05-09T10:53:41;5.40;;;4.47;;
71869;SDS011;59739;47.696;11.746;2023-05-09T10:56:28;6.13;;;4.50;;
71869;SDS011;59739;47.696;11.746;2023-05-09T10:58:57;5.95;;;4.05;;
71869;SDS011;59739;47.696;11.746;2023-05-09T11:01:30;5.47;;;4.20;;
71869;SDS011;59739;47.696;11.746;2023-05-09T11:04:01;6.35;;;5.57;;
71869;SDS011;59739;47.696;11.746;2023-05-09T11:09:23;6.65;;;5.57;;
71869;SDS011;59739;47.696;11.746;2023-05-09T11:17:04;7.20;;;5.90;;
71869;SDS011;59739;47.696;11.746;2023-05-09T11:19:32;7.05;;;5.60;;
71869;SDS011;59739;47.696;11.746;2023-05-09T11:24:44;6.13;;;4.93;;
71869;SDS011;59739;47.696;11.746;2023-05-09T11:27:18;6.43;;;5.65;;
71869;SDS011;59739;47.696;11.746;2023-05-09T11:29:49;7.50;;;6.75;;
71869;SDS011;59739;47.696;11.746;2023-05-09T11:32:21;10.40;;;8.00;;
71869;SDS011;59739;47.696;11.746;2023-05-09T11:38:23;9.52;;;6.50;;
71869;SDS011;59739;47.696;11.746;2023-05-09T11:40:31;7.07;;;5.47;;
71869;SDS011;59739;47.696;11.746;2023-05-09T11:42:59;6.82;;;6.10;;
71869;SDS011;59739;47.696;11.746;2023-05-09T11:45:27;6.13;;;5.53;;
71869;SDS011;59739;47.696;11.746;2023-05-09T11:47:56;6.13;;;5.53;;
71869;SDS011;59739;47.696;11.746;2023-05-09T11:50:22;7.82;;;6.13;;
71869;SDS011;59739;47.696;11.746;2023-05-09T11:52:49;6.50;;;5.80;;
71869;SDS011;59739;47.696;11.746;2023-05-09T11:55:17;7.68;;;6.25;;
71869;SDS011;59739;47.696;11.746;2023-05-09T11:57:50;7.78;;;6.50;;
71869;SDS011;59739;47.696;11.746;2023-05-09T12:02:48;7.28;;;6.43;;
71869;SDS011;59739;47.696;11.746;2023-05-09T12:05:16;7.68;;;6.50;;
71869;SDS011;59739;47.696;11.746;2023-05-09T12:07:44;6.93;;;6.07;;
71869;SDS011;59739;47.696;11.746;2023-05-09T12:10:15;8.15;;;7.35;;
71869;SDS011;59739;47.696;11.746;2023-05-09T12:12:47;8.57;;;7.00;;
71869;SDS011;59739;47.696;11.746;2023-05-09T12:15:15;6.28;;;5.68;;
71869;SDS011;59739;47.696;11.746;2023-05-09T12:17:43;6.55;;;5.78;;
71869;SDS011;59739;47.696;11.746;2023-05-09T12:20:10;6.90;;;5.88;;
71869;SDS011;59739;47.696;11.746;2023-05-09T12:22:37;6.90;;;6.15;;
71869;SDS011;59739;47.696;11.746;2023-05-09T12:25:08;8.45;;;5.60;;
71869;SDS011;59739;47.696;11.746;2023-05-09T12:27:36;6.05;;;5.45;;
71869;SDS011;59739;47.696;11.746;2023-05-09T12:30:04;7.30;;;6.60;;
71869;SDS011;59739;47.696;11.746;2023-05-09T12:32:34;6.90;;;6.20;;
71869;SDS011;59739;47.696;11.746;2023-05-09T12:35:03;6.55;;;5.57;;
71869;SDS011;59739;47.696;11.746;2023-05-09T12:37:34;8.07;;;4.90;;
71869;SDS011;59739;47.696;11.746;2023-05-09T12:40:10;7.03;;;4.93;;
71869;SDS011;59739;47.696;11.746;2023-05-09T12:42:41;6.18;;;4.68;;
71869;SDS011;59739;47.696;11.746;2023-05-09T12:45:09;4.10;;;3.70;;
71869;SDS011;59739;47.696;11.746;2023-05-09T12:47:36;5.03;;;3.97;;
71869;SDS011;59739;47.696;11.746;2023-05-09T12:50:03;4.50;;;3.70;;
71869;SDS011;59739;47.696;11.746;2023-05-09T12:52:34;4.90;;;3.40;;
71869;SDS011;59739;47.696;11.746;2023-05-09T12:55:07;4.15;;;3.85;;
71869;SDS011;59739;47.696;11.746;2023-05-09T12:57:38;5.13;;;3.53;;
71869;SDS011;59739;47.696;11.746;2023-05-09T13:00:06;4.07;;;3.50;;
71869;SDS011;59739;47.696;11.746;2023-05-09T13:10:13;4.82;;;3.60;;
71869;SDS011;59739;47.696;11.746;2023-05-09T13:12:45;3.67;;;3.17;;
71869;SDS011;59739;47.696;11.746;2023-05-09T13:15:16;4.60;;;3.30;;
71869;SDS011;59739;47.696;11.746;2023-05-09T13:17:48;3.42;;;3.13;;
71869;SDS011;59739;47.696;11.746;2023-05-09T13:20:16;4.50;;;3.25;;
71869;SDS011;59739;47.696;11.746;2023-05-09T13:22:43;3.30;;;2.90;;
71869;SDS011;59739;47.696;11.746;2023-05-09T13:25:10;4.72;;;3.53;;
71869;SDS011;59739;47.696;11.746;2023-05-09T13:27:36;3.70;;;3.17;;
71869;SDS011;59739;47.696;11.746;2023-05-09T13:30:03;4.60;;;3.92;;
71869;SDS011;59739;47.696;11.746;2023-05-09T13:32:33;4.03;;;2.97;;
71869;SDS011;59739;47.696;11.746;2023-05-09T13:35:00;4.72;;;3.22;;
71869;SDS011;59739;47.696;11.746;2023-05-09T13:37:26;2.85;;;2.55;;
71869;SDS011;59739;47.696;11.746;2023-05-09T13:39:53;3.38;;;3.08;;
71869;SDS011;59739;47.696;11.746;2023-05-09T13:42:20;3.40;;;3.10;;
71869;SDS011;59739;47.696;11.746;2023-05-09T13:44:46;3.42;;;3.20;;
71869;SDS011;59739;47.696;11.746;2023-05-09T13:47:12;4.22;;;3.20;;
71869;SDS011;59739;47.696;11.746;2023-05-09T13:49:38;3.65;;;3.33;;
71869;SDS011;59739;47.696;11.746;2023-05-09T13:52:04;3.13;;;2.90;;
71869;SDS011;59739;47.696;11.746;2023-05-09T13:54:30;3.60;;;3.25;;
71869;SDS011;59739;47.696;11.746;2023-05-09T13:57:03;4.32;;;3.25;;
71869;SDS011;59739;47.696;11.746;2023-05-09T13:59:30;3.45;;;3.15;;
71869;SDS011;59739;47.696;11.746;2023-05-09T14:01:57;4.03;;;3.63;;
71869;SDS011;59739;47.696;11.746;2023-05-09T14:04:24;4.82;;;4.10;;
71869;SDS011;59739;47.696;11.746;2023-05-09T14:06:52;5.80;;;3.88;;
71869;SDS011;59739;47.696;11.746;2023-05-09T14:09:19;4.78;;;4.03;;
71869;SDS011;59739;47.696;11.746;2023-05-09T14:11:46;4.05;;;3.45;;
71869;SDS011;59739;47.696;11.746;2023-05-09T14:14:19;4.18;;;3.78;;
71869;SDS011;59739;47.696;11.746;2023-05-09T14:16:46;4.25;;;3.85;;
71869;SDS011;59739;47.696;11.746;2023-05-09T14:19:13;5.57;;;4.55;;
71869;SDS011;59739;47.696;11.746;2023-05-09T14:21:40;4.28;;;3.88;;
71869;SDS011;59739;47.696;11.746;2023-05-09T14:24:07;4.43;;;4.03;;
71869;SDS011;59739;47.696;11.746;2023-05-09T14:26:34;4.72;;;4.22;;
71869;SDS011;59739;47.696;11.746;2023-05-09T14:29:03;4.60;;;4.07;;
71869;SDS011;59739;47.696;11.746;2023-05-09T14:31:29;5.95;;;4.32;;
71869;SDS011;59739;47.696;11.746;2023-05-09T14:33:56;5.35;;;4.45;;
71869;SDS011;59739;47.696;11.746;2023-05-09T14:36:24;4.43;;;4.03;;
71869;SDS011;59739;47.696;11.746;2023-05-09T14:38:51;5.18;;;4.38;;
71869;SDS011;59739;47.696;11.746;2023-05-09T14:41:18;4.68;;;4.13;;
71869;SDS011;59739;47.696;11.746;2023-05-09T14:43:44;4.25;;;3.72;;
71869;SDS011;59739;47.696;11.746;2023-05-09T14:46:10;5.13;;;4.40;;
71869;SDS011;59739;47.696;11.746;2023-05-09T14:48:36;6.70;;;4.57;;
71869;SDS011;59739;47.696;11.746;2023-05-09T14:51:02;4.53;;;4.13;;
71869;SDS011;59739;47.696;11.746;2023-05-09T14:53:31;5.07;;;3.88;;
71869;SDS011;59739;47.696;11.746;2023-05-09T14:56:04;4.53;;;3.78;;
71869;SDS011;59739;47.696;11.746;2023-05-09T14:58:31;4.53;;;4.03;;
71869;SDS011;59739;47.696;11.746;2023-05-09T15:00:58;4.57;;;3.95;;
71869;SDS011;59739;47.696;11.746;2023-05-09T15:03:26;5.20;;;3.88;;
71869;SDS011;59739;47.696;11.746;2023-05-09T15:05:52;10.70;;;4.63;;
71869;SDS011;59739;47.696;11.746;2023-05-09T15:08:19;4.65;;;3.83;;
71869;SDS011;59739;47.696;11.746;2023-05-09T15:10:45;5.70;;;4.07;;
71869;SDS011;59739;47.696;11.746;2023-05-09T15:13:12;4.90;;;3.75;;
71869;SDS011;59739;47.696;11.746;2023-05-09T15:15:38;4.80;;;3.88;;